sensor_id;sensor_type;location;lat;lon;timestamp;P1;durP1;ratioP1;P2;durP2;ratioP2
11269;SDS011;5692;48.956;9.200;2022-09-01T00:00:47;194.25;;;184.95;;
11269;SDS011;5692;48.956;9.200;2022-09-01T00:03:15;199.68;;;190.13;;
11269;SDS011;5692;48.956;9.200;2022-09-01T00:05:41;189.27;;;180.20;;
11269;SDS011;5692;48.956;9.200;2022-09-01T00:08:08;192.80;;;183.57;;
11269;SDS011;5692;48.956;9.200;2022-09-01T00:10:34;194.07;;;184.80;;
11269;SDS011;5692;48.956;9.200;2022-09-01T00:13:00;201.93;;;192.23;;
11269;SDS011;5692;48.956;9.200;2022-09-01T00:15:28;205.43;;;195.57;;
11269;SDS011;5692;48.956;9.200;2022-09-01T00:17:57;190.40;;;181.27;;
11269;SDS011;5692;48.956;9.200;2022-09-01T00:20:26;182.93;;;174.13;;
11269;SDS011;5692;48.956;9.200;2022-09-01T00:22:52;184.60;;;175.77;;
11269;SDS011;5692;48.956;9.200;2022-09-01T00:25:19;182.27;;;173.57;;
11269;SDS011;5692;48.956;9.200;2022-09-01T00:27:48;192.65;;;183.45;;
11269;SDS011;5692;48.956;9.200;2022-09-01T00:30:15;198.63;;;189.13;;
11269;SDS011;5692;48.956;9.200;2022-09-01T00:32:41;183.05;;;174.25;;
11269;SDS011;5692;48.956;9.200;2022-09-01T00:35:11;186.23;;;177.30;;
11269;SDS011;5692;48.956;9.200;2022-09-01T00:37:37;192.18;;;182.98;;
11269;SDS011;5692;48.956;9.200;2022-09-01T00:40:03;195.30;;;185.95;;
11269;SDS011;5692;48.956;9.200;2022-09-01T00:42:29;187.43;;;178.45;;
11269;SDS011;5692;48.956;9.200;2022-09-01T00:44:55;193.95;;;184.65;;
11269;SDS011;5692;48.956;9.200;2022-09-01T00:47:21;190.73;;;181.60;;
11269;SDS011;5692;48.956;9.200;2022-09-01T00:49:47;179.82;;;171.20;;
11269;SDS011;5692;48.956;9.200;2022-09-01T00:54:41;189.07;;;180.03;;
11269;SDS011;5692;48.956;9.200;2022-09-01T00:57:08;187.73;;;178.73;;
11269;SDS011;5692;48.956;9.200;2022-09-01T00:59:38;181.75;;;173.05;;
11269;SDS011;5692;48.956;9.200;2022-09-01T01:02:04;186.35;;;177.43;;
11269;SDS011;5692;48.956;9.200;2022-09-01T01:04:30;180.00;;;171.38;;
11269;SDS011;5692;48.956;9.200;2022-09-01T01:06:57;190.15;;;181.05;;
11269;SDS011;5692;48.956;9.200;2022-09-01T01:09:34;187.13;;;178.18;;
11269;SDS011;5692;48.956;9.200;2022-09-01T01:12:01;179.68;;;171.07;;
11269;SDS011;5692;48.956;9.200;2022-09-01T01:14:28;184.25;;;175.45;;
11269;SDS011;5692;48.956;9.200;2022-09-01T01:16:56;187.60;;;178.60;;
11269;SDS011;5692;48.956;9.200;2022-09-01T01:22:09;178.60;;;170.02;;
11269;SDS011;5692;48.956;9.200;2022-09-01T01:24:56;183.77;;;174.98;;
11269;SDS011;5692;48.956;9.200;2022-09-01T01:27:23;176.18;;;167.75;;
11269;SDS011;5692;48.956;9.200;2022-09-01T01:29:49;189.63;;;180.52;;
11269;SDS011;5692;48.956;9.200;2022-09-01T01:32:17;195.50;;;186.15;;
11269;SDS011;5692;48.956;9.200;2022-09-01T01:34:44;178.98;;;170.38;;
11269;SDS011;5692;48.956;9.200;2022-09-01T01:37:11;190.95;;;181.80;;
11269;SDS011;5692;48.956;9.200;2022-09-01T01:39:41;188.25;;;179.25;;
11269;SDS011;5692;48.956;9.200;2022-09-01T01:42:08;191.35;;;182.20;;
11269;SDS011;5692;48.956;9.200;2022-09-01T01:44:36;188.40;;;179.40;;
11269;SDS011;5692;48.956;9.200;2022-09-01T01:47:03;175.35;;;166.95;;
11269;SDS011;5692;48.956;9.200;2022-09-01T01:49:34;176.07;;;167.63;;
11269;SDS011;5692;48.956;9.200;2022-09-01T01:52:00;154.27;;;146.88;;
11269;SDS011;5692;48.956;9.200;2022-09-01T01:54:30;168.18;;;160.13;;
11269;SDS011;5692;48.956;9.200;2022-09-01T01:57:00;175.68;;;167.25;;
11269;SDS011;5692;48.956;9.200;2022-09-01T01:59:28;165.40;;;157.45;;
11269;SDS011;5692;48.956;9.200;2022-09-01T02:01:54;168.73;;;160.63;;
11269;SDS011;5692;48.956;9.200;2022-09-01T02:04:20;176.68;;;168.23;;
11269;SDS011;5692;48.956;9.200;2022-09-01T02:06:47;169.43;;;161.32;;
11269;SDS011;5692;48.956;9.200;2022-09-01T02:09:14;169.13;;;161.02;;
11269;SDS011;5692;48.956;9.200;2022-09-01T02:11:40;181.15;;;172.48;;
11269;SDS011;5692;48.956;9.200;2022-09-01T02:14:08;165.55;;;157.65;;
11269;SDS011;5692;48.956;9.200;2022-09-01T02:16:34;171.15;;;162.95;;
11269;SDS011;5692;48.956;9.200;2022-09-01T02:19:01;176.10;;;167.65;;
11269;SDS011;5692;48.956;9.200;2022-09-01T02:21:28;167.68;;;159.65;;
11269;SDS011;5692;48.956;9.200;2022-09-01T02:23:56;179.30;;;170.70;;
11269;SDS011;5692;48.956;9.200;2022-09-01T02:26:30;175.60;;;167.20;;
11269;SDS011;5692;48.956;9.200;2022-09-01T02:29:04;176.95;;;168.48;;
11269;SDS011;5692;48.956;9.200;2022-09-01T02:31:33;178.00;;;169.48;;
11269;SDS011;5692;48.956;9.200;2022-09-01T02:34:03;162.70;;;154.90;;
11269;SDS011;5692;48.956;9.200;2022-09-01T02:36:29;170.00;;;161.85;;
11269;SDS011;5692;48.956;9.200;2022-09-01T02:38:59;168.10;;;160.05;;
11269;SDS011;5692;48.956;9.200;2022-09-01T02:41:25;171.25;;;163.05;;
11269;SDS011;5692;48.956;9.200;2022-09-01T02:43:56;167.38;;;159.38;;
11269;SDS011;5692;48.956;9.200;2022-09-01T02:46:26;174.15;;;165.85;;
11269;SDS011;5692;48.956;9.200;2022-09-01T02:48:52;177.48;;;168.98;;
11269;SDS011;5692;48.956;9.200;2022-09-01T02:51:19;177.70;;;169.20;;
11269;SDS011;5692;48.956;9.200;2022-09-01T02:53:46;182.73;;;173.98;;
11269;SDS011;5692;48.956;9.200;2022-09-01T02:56:15;178.80;;;170.25;;
11269;SDS011;5692;48.956;9.200;2022-09-01T02:58:42;183.60;;;174.80;;
11269;SDS011;5692;48.956;9.200;2022-09-01T03:01:19;176.18;;;167.75;;
11269;SDS011;5692;48.956;9.200;2022-09-01T03:03:49;190.18;;;181.07;;
11269;SDS011;5692;48.956;9.200;2022-09-01T03:06:15;187.57;;;178.57;;
11269;SDS011;5692;48.956;9.200;2022-09-01T03:08:43;186.13;;;177.23;;
11269;SDS011;5692;48.956;9.200;2022-09-01T03:11:09;173.65;;;165.35;;
11269;SDS011;5692;48.956;9.200;2022-09-01T03:13:37;177.65;;;169.15;;
11269;SDS011;5692;48.956;9.200;2022-09-01T03:16:04;170.68;;;162.50;;
11269;SDS011;5692;48.956;9.200;2022-09-01T03:18:30;172.02;;;163.77;;
11269;SDS011;5692;48.956;9.200;2022-09-01T03:20:57;180.60;;;171.95;;
11269;SDS011;5692;48.956;9.200;2022-09-01T03:23:23;182.80;;;174.05;;
11269;SDS011;5692;48.956;9.200;2022-09-01T03:25:51;190.13;;;181.02;;
11269;SDS011;5692;48.956;9.200;2022-09-01T03:28:17;173.17;;;164.87;;
11269;SDS011;5692;48.956;9.200;2022-09-01T03:30:47;183.02;;;174.25;;
11269;SDS011;5692;48.956;9.200;2022-09-01T03:33:14;173.85;;;165.52;;
11269;SDS011;5692;48.956;9.200;2022-09-01T03:35:41;181.55;;;172.85;;
11269;SDS011;5692;48.956;9.200;2022-09-01T03:38:07;179.77;;;171.18;;
11269;SDS011;5692;48.956;9.200;2022-09-01T03:40:35;185.70;;;176.80;;
11269;SDS011;5692;48.956;9.200;2022-09-01T03:43:02;186.40;;;177.50;;
11269;SDS011;5692;48.956;9.200;2022-09-01T03:45:29;184.75;;;175.90;;
11269;SDS011;5692;48.956;9.200;2022-09-01T03:47:58;174.65;;;166.30;;
11269;SDS011;5692;48.956;9.200;2022-09-01T03:50:24;179.68;;;171.07;;
11269;SDS011;5692;48.956;9.200;2022-09-01T03:52:56;162.80;;;155.00;;
11269;SDS011;5692;48.956;9.200;2022-09-01T03:55:23;161.77;;;154.00;;
11269;SDS011;5692;48.956;9.200;2022-09-01T03:57:54;172.27;;;164.02;;
11269;SDS011;5692;48.956;9.200;2022-09-01T04:00:25;183.13;;;174.32;;
11269;SDS011;5692;48.956;9.200;2022-09-01T04:02:54;181.93;;;173.20;;
11269;SDS011;5692;48.956;9.200;2022-09-01T04:05:21;174.13;;;165.80;;
11269;SDS011;5692;48.956;9.200;2022-09-01T04:07:49;183.45;;;174.65;;
11269;SDS011;5692;48.956;9.200;2022-09-01T04:10:17;169.73;;;161.63;;
11269;SDS011;5692;48.956;9.200;2022-09-01T04:12:44;165.05;;;157.15;;
11269;SDS011;5692;48.956;9.200;2022-09-01T04:15:13;182.68;;;173.93;;
11269;SDS011;5692;48.956;9.200;2022-09-01T04:17:41;176.70;;;168.25;;
11269;SDS011;5692;48.956;9.200;2022-09-01T04:20:25;175.35;;;166.95;;
11269;SDS011;5692;48.956;9.200;2022-09-01T04:22:51;180.73;;;172.07;;
11269;SDS011;5692;48.956;9.200;2022-09-01T04:25:18;191.68;;;182.50;;
11269;SDS011;5692;48.956;9.200;2022-09-01T04:27:49;181.65;;;172.95;;
11269;SDS011;5692;48.956;9.200;2022-09-01T04:30:19;187.02;;;178.07;;
11269;SDS011;5692;48.956;9.200;2022-09-01T04:32:48;183.38;;;174.57;;
11269;SDS011;5692;48.956;9.200;2022-09-01T04:35:16;191.85;;;182.68;;
11269;SDS011;5692;48.956;9.200;2022-09-01T04:37:42;201.85;;;192.20;;
11269;SDS011;5692;48.956;9.200;2022-09-01T04:40:11;192.40;;;183.20;;
11269;SDS011;5692;48.956;9.200;2022-09-01T04:42:38;194.00;;;184.70;;
11269;SDS011;5692;48.956;9.200;2022-09-01T04:45:07;199.40;;;189.85;;
11269;SDS011;5692;48.956;9.200;2022-09-01T04:47:35;186.98;;;178.02;;
11269;SDS011;5692;48.956;9.200;2022-09-01T04:50:06;202.43;;;192.73;;
11269;SDS011;5692;48.956;9.200;2022-09-01T04:52:37;182.32;;;173.60;;
11269;SDS011;5692;48.956;9.200;2022-09-01T04:55:05;177.93;;;169.40;;
11269;SDS011;5692;48.956;9.200;2022-09-01T04:57:32;171.70;;;163.50;;
11269;SDS011;5692;48.956;9.200;2022-09-01T05:00:00;152.57;;;145.25;;
11269;SDS011;5692;48.956;9.200;2022-09-01T05:02:26;161.77;;;154.02;;
11269;SDS011;5692;48.956;9.200;2022-09-01T05:04:55;186.05;;;177.15;;
11269;SDS011;5692;48.956;9.200;2022-09-01T05:07:22;177.70;;;169.18;;
11269;SDS011;5692;48.956;9.200;2022-09-01T05:09:51;172.57;;;164.27;;
11269;SDS011;5692;48.956;9.200;2022-09-01T05:12:18;166.05;;;158.10;;
11269;SDS011;5692;48.956;9.200;2022-09-01T05:14:47;176.65;;;168.18;;
11269;SDS011;5692;48.956;9.200;2022-09-01T05:17:16;178.27;;;169.73;;
11269;SDS011;5692;48.956;9.200;2022-09-01T05:19:44;178.85;;;170.30;;
11269;SDS011;5692;48.956;9.200;2022-09-01T05:22:11;175.10;;;166.70;;
11269;SDS011;5692;48.956;9.200;2022-09-01T05:24:38;169.73;;;161.63;;
11269;SDS011;5692;48.956;9.200;2022-09-01T05:27:04;171.30;;;163.10;;
11269;SDS011;5692;48.956;9.200;2022-09-01T05:29:34;176.20;;;167.77;;
11269;SDS011;5692;48.956;9.200;2022-09-01T05:32:03;167.80;;;159.77;;
11269;SDS011;5692;48.956;9.200;2022-09-01T05:34:34;173.55;;;165.25;;
11269;SDS011;5692;48.956;9.200;2022-09-01T05:37:02;181.98;;;173.27;;
11269;SDS011;5692;48.956;9.200;2022-09-01T05:39:29;168.43;;;160.32;;
11269;SDS011;5692;48.956;9.200;2022-09-01T05:41:57;171.93;;;163.73;;
11269;SDS011;5692;48.956;9.200;2022-09-01T05:44:23;164.48;;;156.60;;
11269;SDS011;5692;48.956;9.200;2022-09-01T05:46:49;166.85;;;158.85;;
11269;SDS011;5692;48.956;9.200;2022-09-01T05:49:17;172.82;;;164.52;;
11269;SDS011;5692;48.956;9.200;2022-09-01T05:51:47;171.75;;;163.52;;
11269;SDS011;5692;48.956;9.200;2022-09-01T05:54:20;178.63;;;170.07;;
11269;SDS011;5692;48.956;9.200;2022-09-01T05:56:51;175.73;;;167.30;;
11269;SDS011;5692;48.956;9.200;2022-09-01T05:59:18;181.45;;;172.75;;
11269;SDS011;5692;48.956;9.200;2022-09-01T06:01:45;170.88;;;162.68;;
11269;SDS011;5692;48.956;9.200;2022-09-01T06:04:11;172.82;;;164.52;;
11269;SDS011;5692;48.956;9.200;2022-09-01T06:06:44;170.63;;;162.43;;
11269;SDS011;5692;48.956;9.200;2022-09-01T06:09:16;180.32;;;171.70;;
11269;SDS011;5692;48.956;9.200;2022-09-01T06:11:43;171.20;;;163.00;;
11269;SDS011;5692;48.956;9.200;2022-09-01T06:14:11;168.45;;;160.35;;
11269;SDS011;5692;48.956;9.200;2022-09-01T06:16:40;164.32;;;156.43;;
11269;SDS011;5692;48.956;9.200;2022-09-01T06:19:09;174.63;;;166.27;;
11269;SDS011;5692;48.956;9.200;2022-09-01T06:21:37;180.00;;;171.38;;
11269;SDS011;5692;48.956;9.200;2022-09-01T06:24:03;194.82;;;185.48;;
11269;SDS011;5692;48.956;9.200;2022-09-01T06:26:32;187.48;;;178.48;;
11269;SDS011;5692;48.956;9.200;2022-09-01T06:29:04;186.05;;;177.13;;
11269;SDS011;5692;48.956;9.200;2022-09-01T06:31:33;183.75;;;174.95;;
11269;SDS011;5692;48.956;9.200;2022-09-01T06:34:03;180.32;;;171.68;;
11269;SDS011;5692;48.956;9.200;2022-09-01T06:36:29;181.27;;;172.60;;
11269;SDS011;5692;48.956;9.200;2022-09-01T06:39:00;200.75;;;191.15;;
11269;SDS011;5692;48.956;9.200;2022-09-01T06:41:27;193.70;;;184.43;;
11269;SDS011;5692;48.956;9.200;2022-09-01T06:43:53;192.27;;;183.07;;
11269;SDS011;5692;48.956;9.200;2022-09-01T06:46:22;198.43;;;188.93;;
11269;SDS011;5692;48.956;9.200;2022-09-01T06:48:51;200.30;;;190.70;;
11269;SDS011;5692;48.956;9.200;2022-09-01T06:51:19;218.55;;;208.10;;
11269;SDS011;5692;48.956;9.200;2022-09-01T06:53:46;209.13;;;199.13;;
11269;SDS011;5692;48.956;9.200;2022-09-01T06:56:17;227.65;;;216.75;;
11269;SDS011;5692;48.956;9.200;2022-09-01T06:58:44;219.77;;;209.27;;
11269;SDS011;5692;48.956;9.200;2022-09-01T07:01:15;218.60;;;208.15;;
11269;SDS011;5692;48.956;9.200;2022-09-01T07:03:48;230.95;;;219.90;;
11269;SDS011;5692;48.956;9.200;2022-09-01T07:06:15;235.65;;;224.38;;
11269;SDS011;5692;48.956;9.200;2022-09-01T07:08:42;221.15;;;210.55;;
11269;SDS011;5692;48.956;9.200;2022-09-01T07:11:20;222.20;;;211.57;;
11269;SDS011;5692;48.956;9.200;2022-09-01T07:14:05;216.35;;;206.00;;
11269;SDS011;5692;48.956;9.200;2022-09-01T07:16:32;220.98;;;210.43;;
11269;SDS011;5692;48.956;9.200;2022-09-01T07:19:03;211.48;;;201.38;;
11269;SDS011;5692;48.956;9.200;2022-09-01T07:21:30;207.32;;;197.43;;
11269;SDS011;5692;48.956;9.200;2022-09-01T07:23:57;208.82;;;198.82;;
11269;SDS011;5692;48.956;9.200;2022-09-01T07:26:25;215.00;;;204.70;;
11269;SDS011;5692;48.956;9.200;2022-09-01T07:28:55;218.73;;;208.25;;
11269;SDS011;5692;48.956;9.200;2022-09-01T07:31:25;221.45;;;210.85;;
11269;SDS011;5692;48.956;9.200;2022-09-01T07:33:52;212.45;;;202.30;;
11269;SDS011;5692;48.956;9.200;2022-09-01T07:36:18;217.25;;;206.85;;
11269;SDS011;5692;48.956;9.200;2022-09-01T07:38:45;210.07;;;200.00;;
11269;SDS011;5692;48.956;9.200;2022-09-01T07:41:17;215.65;;;205.35;;
11269;SDS011;5692;48.956;9.200;2022-09-01T07:43:44;223.10;;;212.43;;
11269;SDS011;5692;48.956;9.200;2022-09-01T07:46:10;222.50;;;211.85;;
11269;SDS011;5692;48.956;9.200;2022-09-01T07:48:37;201.15;;;191.52;;
11269;SDS011;5692;48.956;9.200;2022-09-01T07:51:24;223.00;;;212.35;;
11269;SDS011;5692;48.956;9.200;2022-09-01T07:53:50;225.50;;;214.70;;
11269;SDS011;5692;48.956;9.200;2022-09-01T07:56:20;220.60;;;210.00;;
11269;SDS011;5692;48.956;9.200;2022-09-01T07:58:50;230.02;;;219.02;;
11269;SDS011;5692;48.956;9.200;2022-09-01T08:01:18;217.90;;;207.50;;
11269;SDS011;5692;48.956;9.200;2022-09-01T08:03:46;232.93;;;221.77;;
11269;SDS011;5692;48.956;9.200;2022-09-01T08:06:15;223.75;;;213.05;;
11269;SDS011;5692;48.956;9.200;2022-09-01T08:08:48;230.32;;;219.32;;
11269;SDS011;5692;48.956;9.200;2022-09-01T08:11:18;217.65;;;207.25;;
11269;SDS011;5692;48.956;9.200;2022-09-01T08:13:44;232.65;;;221.52;;
11269;SDS011;5692;48.956;9.200;2022-09-01T08:16:11;233.45;;;222.27;;
11269;SDS011;5692;48.956;9.200;2022-09-01T08:18:38;224.90;;;214.13;;
11269;SDS011;5692;48.956;9.200;2022-09-01T08:21:08;219.50;;;209.00;;
11269;SDS011;5692;48.956;9.200;2022-09-01T08:23:35;218.70;;;208.23;;
11269;SDS011;5692;48.956;9.200;2022-09-01T08:26:10;241.35;;;229.80;;
11269;SDS011;5692;48.956;9.200;2022-09-01T08:28:37;227.95;;;217.05;;
11269;SDS011;5692;48.956;9.200;2022-09-01T08:31:11;234.55;;;223.35;;
11269;SDS011;5692;48.956;9.200;2022-09-01T08:33:38;229.45;;;218.48;;
11269;SDS011;5692;48.956;9.200;2022-09-01T08:36:08;230.15;;;219.15;;
11269;SDS011;5692;48.956;9.200;2022-09-01T08:38:34;220.45;;;209.90;;
11269;SDS011;5692;48.956;9.200;2022-09-01T08:41:00;231.02;;;219.95;;
11269;SDS011;5692;48.956;9.200;2022-09-01T08:45:56;234.00;;;222.80;;
11269;SDS011;5692;48.956;9.200;2022-09-01T08:50:53;244.85;;;233.15;;
11269;SDS011;5692;48.956;9.200;2022-09-01T08:55:50;232.13;;;221.02;;
11269;SDS011;5692;48.956;9.200;2022-09-01T08:58:18;207.82;;;197.88;;
11269;SDS011;5692;48.956;9.200;2022-09-01T09:00:45;215.53;;;205.20;;
11269;SDS011;5692;48.956;9.200;2022-09-01T09:05:54;231.05;;;220.00;;
11269;SDS011;5692;48.956;9.200;2022-09-01T09:08:44;231.57;;;220.50;;
11269;SDS011;5692;48.956;9.200;2022-09-01T09:16:17;230.38;;;219.35;;
11269;SDS011;5692;48.956;9.200;2022-09-01T09:18:48;236.95;;;225.60;;
11269;SDS011;5692;48.956;9.200;2022-09-01T09:21:16;234.02;;;222.82;;
11269;SDS011;5692;48.956;9.200;2022-09-01T09:23:44;240.32;;;228.82;;
11269;SDS011;5692;48.956;9.200;2022-09-01T09:26:16;246.32;;;234.52;;
11269;SDS011;5692;48.956;9.200;2022-09-01T09:28:44;228.05;;;217.13;;
11269;SDS011;5692;48.956;9.200;2022-09-01T09:31:28;232.18;;;221.07;;
11269;SDS011;5692;48.956;9.200;2022-09-01T09:33:57;248.30;;;236.43;;
11269;SDS011;5692;48.956;9.200;2022-09-01T09:36:31;243.85;;;232.20;;
11269;SDS011;5692;48.956;9.200;2022-09-01T09:39:11;242.10;;;230.50;;
11269;SDS011;5692;48.956;9.200;2022-09-01T09:41:40;242.68;;;231.07;;
11269;SDS011;5692;48.956;9.200;2022-09-01T09:46:43;245.38;;;233.68;;
11269;SDS011;5692;48.956;9.200;2022-09-01T09:51:41;227.45;;;216.55;;
11269;SDS011;5692;48.956;9.200;2022-09-01T09:54:12;234.45;;;223.25;;
11269;SDS011;5692;48.956;9.200;2022-09-01T09:56:49;223.80;;;213.10;;
11269;SDS011;5692;48.956;9.200;2022-09-01T09:59:31;235.48;;;224.23;;
11269;SDS011;5692;48.956;9.200;2022-09-01T10:01:58;214.40;;;204.15;;
11269;SDS011;5692;48.956;9.200;2022-09-01T10:04:32;228.85;;;217.90;;
11269;SDS011;5692;48.956;9.200;2022-09-01T10:07:01;228.52;;;217.57;;
11269;SDS011;5692;48.956;9.200;2022-09-01T10:09:41;217.38;;;206.98;;
11269;SDS011;5692;48.956;9.200;2022-09-01T10:12:07;236.88;;;225.57;;
11269;SDS011;5692;48.956;9.200;2022-09-01T10:17:02;223.30;;;212.60;;
11269;SDS011;5692;48.956;9.200;2022-09-01T10:19:30;247.50;;;235.68;;
11269;SDS011;5692;48.956;9.200;2022-09-01T10:21:57;7.80;;;2.90;;
11269;SDS011;5692;48.956;9.200;2022-09-01T10:24:31;7.00;;;3.55;;
11269;SDS011;5692;48.956;9.200;2022-09-01T10:27:01;11.23;;;4.50;;
11269;SDS011;5692;48.956;9.200;2022-09-01T10:29:31;6.30;;;3.30;;
11269;SDS011;5692;48.956;9.200;2022-09-01T10:32:06;8.55;;;3.42;;
11269;SDS011;5692;48.956;9.200;2022-09-01T10:34:34;7.28;;;4.45;;
11269;SDS011;5692;48.956;9.200;2022-09-01T10:37:01;10.52;;;4.57;;
11269;SDS011;5692;48.956;9.200;2022-09-01T10:42:26;6.03;;;4.15;;
11269;SDS011;5692;48.956;9.200;2022-09-01T10:44:56;7.03;;;3.45;;
11269;SDS011;5692;48.956;9.200;2022-09-01T10:47:26;5.78;;;3.10;;
11269;SDS011;5692;48.956;9.200;2022-09-01T10:52:51;6.57;;;3.70;;
11269;SDS011;5692;48.956;9.200;2022-09-01T10:55:30;10.35;;;4.05;;
11269;SDS011;5692;48.956;9.200;2022-09-01T11:08:22;9.50;;;3.17;;
11269;SDS011;5692;48.956;9.200;2022-09-01T11:10:56;11.07;;;5.45;;
11269;SDS011;5692;48.956;9.200;2022-09-01T11:27:06;6.03;;;3.38;;
11269;SDS011;5692;48.956;9.200;2022-09-01T11:32:34;8.43;;;4.80;;
11269;SDS011;5692;48.956;9.200;2022-09-01T11:35:02;9.40;;;4.10;;
11269;SDS011;5692;48.956;9.200;2022-09-01T11:37:29;11.30;;;5.10;;
11269;SDS011;5692;48.956;9.200;2022-09-01T11:39:57;228.37;;;217.47;;
11269;SDS011;5692;48.956;9.200;2022-09-01T11:42:28;229.87;;;218.87;;
11269;SDS011;5692;48.956;9.200;2022-09-01T11:47:34;244.53;;;232.83;;
11269;SDS011;5692;48.956;9.200;2022-09-01T11:50:05;232.30;;;221.20;;
11269;SDS011;5692;48.956;9.200;2022-09-01T11:52:36;219.23;;;208.73;;
11269;SDS011;5692;48.956;9.200;2022-09-01T11:55:05;238.70;;;227.30;;
11269;SDS011;5692;48.956;9.200;2022-09-01T11:57:40;212.47;;;202.30;;
11269;SDS011;5692;48.956;9.200;2022-09-01T12:00:11;219.17;;;208.67;;
11269;SDS011;5692;48.956;9.200;2022-09-01T12:02:42;228.50;;;217.60;;
11269;SDS011;5692;48.956;9.200;2022-09-01T12:05:22;215.07;;;204.77;;
11269;SDS011;5692;48.956;9.200;2022-09-01T12:07:49;230.03;;;219.03;;
11269;SDS011;5692;48.956;9.200;2022-09-01T12:10:32;227.43;;;216.53;;
11269;SDS011;5692;48.956;9.200;2022-09-01T12:12:59;239.23;;;227.83;;
11269;SDS011;5692;48.956;9.200;2022-09-01T12:15:25;237.77;;;226.40;;
11269;SDS011;5692;48.956;9.200;2022-09-01T12:17:52;251.27;;;239.27;;
11269;SDS011;5692;48.956;9.200;2022-09-01T12:22:44;277.33;;;264.07;;
11269;SDS011;5692;48.956;9.200;2022-09-01T12:25:20;278.37;;;265.07;;
11269;SDS011;5692;48.956;9.200;2022-09-01T12:27:47;212.97;;;202.77;;
11269;SDS011;5692;48.956;9.200;2022-09-01T12:30:13;9.90;;;4.63;;
11269;SDS011;5692;48.956;9.200;2022-09-01T12:32:39;235.20;;;223.93;;
11269;SDS011;5692;48.956;9.200;2022-09-01T12:35:13;194.27;;;184.97;;
11269;SDS011;5692;48.956;9.200;2022-09-01T12:37:40;178.07;;;169.57;;
11269;SDS011;5692;48.956;9.200;2022-09-01T12:40:06;239.73;;;228.27;;
11269;SDS011;5692;48.956;9.200;2022-09-01T12:42:49;221.33;;;210.73;;
11269;SDS011;5692;48.956;9.200;2022-09-01T12:45:15;208.43;;;198.47;;
11269;SDS011;5692;48.956;9.200;2022-09-01T12:48:02;209.07;;;199.07;;
11269;SDS011;5692;48.956;9.200;2022-09-01T12:52:59;212.90;;;202.70;;
11269;SDS011;5692;48.956;9.200;2022-09-01T12:57:58;192.63;;;183.40;;
11269;SDS011;5692;48.956;9.200;2022-09-01T13:00:29;201.00;;;191.40;;
11269;SDS011;5692;48.956;9.200;2022-09-01T13:07:54;203.43;;;193.73;;
11269;SDS011;5692;48.956;9.200;2022-09-01T13:10:25;193.80;;;184.53;;
11269;SDS011;5692;48.956;9.200;2022-09-01T13:12:52;175.03;;;166.63;;
11269;SDS011;5692;48.956;9.200;2022-09-01T13:15:18;216.70;;;206.33;;
11269;SDS011;5692;48.956;9.200;2022-09-01T13:17:45;241.63;;;230.07;;
11269;SDS011;5692;48.956;9.200;2022-09-01T13:20:11;186.40;;;177.47;;
11269;SDS011;5692;48.956;9.200;2022-09-01T13:22:38;202.77;;;193.07;;
11269;SDS011;5692;48.956;9.200;2022-09-01T13:25:08;230.63;;;219.60;;
11269;SDS011;5692;48.956;9.200;2022-09-01T13:27:34;214.70;;;204.40;;
11269;SDS011;5692;48.956;9.200;2022-09-01T13:30:02;218.43;;;207.97;;
11269;SDS011;5692;48.956;9.200;2022-09-01T13:32:28;218.20;;;207.77;;
11269;SDS011;5692;48.956;9.200;2022-09-01T13:34:54;235.70;;;224.40;;
11269;SDS011;5692;48.956;9.200;2022-09-01T13:37:20;231.67;;;220.57;;
11269;SDS011;5692;48.956;9.200;2022-09-01T13:39:47;216.53;;;206.17;;
11269;SDS011;5692;48.956;9.200;2022-09-01T13:42:13;223.40;;;212.70;;
11269;SDS011;5692;48.956;9.200;2022-09-01T13:44:39;228.73;;;217.80;;
11269;SDS011;5692;48.956;9.200;2022-09-01T13:47:05;241.83;;;230.30;;
11269;SDS011;5692;48.956;9.200;2022-09-01T13:49:31;221.83;;;211.23;;
11269;SDS011;5692;48.956;9.200;2022-09-01T13:51:57;235.50;;;224.20;;
11269;SDS011;5692;48.956;9.200;2022-09-01T13:54:23;238.50;;;227.10;;
11269;SDS011;5692;48.956;9.200;2022-09-01T13:56:49;224.80;;;214.03;;
11269;SDS011;5692;48.956;9.200;2022-09-01T13:59:16;225.43;;;214.63;;
11269;SDS011;5692;48.956;9.200;2022-09-01T14:01:42;224.60;;;213.85;;
11269;SDS011;5692;48.956;9.200;2022-09-01T14:04:08;214.05;;;203.80;;
11269;SDS011;5692;48.956;9.200;2022-09-01T14:06:43;221.93;;;211.30;;
11269;SDS011;5692;48.956;9.200;2022-09-01T14:09:13;217.60;;;207.20;;
11269;SDS011;5692;48.956;9.200;2022-09-01T14:11:39;244.47;;;232.77;;
11269;SDS011;5692;48.956;9.200;2022-09-01T14:14:05;234.07;;;222.87;;
11269;SDS011;5692;48.956;9.200;2022-09-01T14:16:32;217.57;;;207.17;;
11269;SDS011;5692;48.956;9.200;2022-09-01T14:18:58;128.70;;;122.53;;
11269;SDS011;5692;48.956;9.200;2022-09-01T14:21:24;265.60;;;252.90;;
11269;SDS011;5692;48.956;9.200;2022-09-01T14:23:50;205.03;;;195.20;;
11269;SDS011;5692;48.956;9.200;2022-09-01T14:26:17;232.90;;;221.77;;
11269;SDS011;5692;48.956;9.200;2022-09-01T14:28:44;244.03;;;232.33;;
11269;SDS011;5692;48.956;9.200;2022-09-01T14:31:12;254.00;;;241.87;;
11269;SDS011;5692;48.956;9.200;2022-09-01T14:33:38;236.40;;;225.10;;
11269;SDS011;5692;48.956;9.200;2022-09-01T14:36:05;265.33;;;252.67;;
11269;SDS011;5692;48.956;9.200;2022-09-01T14:38:32;242.23;;;230.67;;
11269;SDS011;5692;48.956;9.200;2022-09-01T14:40:59;241.40;;;229.87;;
11269;SDS011;5692;48.956;9.200;2022-09-01T14:43:25;262.30;;;249.80;;
11269;SDS011;5692;48.956;9.200;2022-09-01T14:46:04;241.93;;;230.33;;
11269;SDS011;5692;48.956;9.200;2022-09-01T14:48:31;263.93;;;251.33;;
11269;SDS011;5692;48.956;9.200;2022-09-01T14:50:58;245.13;;;233.40;;
11269;SDS011;5692;48.956;9.200;2022-09-01T14:53:33;235.90;;;224.60;;
11269;SDS011;5692;48.956;9.200;2022-09-01T14:56:02;258.70;;;246.30;;
11269;SDS011;5692;48.956;9.200;2022-09-01T14:58:28;244.23;;;232.53;;
11269;SDS011;5692;48.956;9.200;2022-09-01T15:00:55;237.77;;;226.37;;
11269;SDS011;5692;48.956;9.200;2022-09-01T15:03:21;238.10;;;226.70;;
11269;SDS011;5692;48.956;9.200;2022-09-01T15:05:49;242.53;;;230.93;;
11269;SDS011;5692;48.956;9.200;2022-09-01T15:08:15;242.03;;;230.47;;
11269;SDS011;5692;48.956;9.200;2022-09-01T15:10:41;234.77;;;223.53;;
11269;SDS011;5692;48.956;9.200;2022-09-01T15:13:08;230.13;;;219.13;;
11269;SDS011;5692;48.956;9.200;2022-09-01T15:15:34;219.20;;;208.70;;
11269;SDS011;5692;48.956;9.200;2022-09-01T15:18:00;223.10;;;212.40;;
11269;SDS011;5692;48.956;9.200;2022-09-01T15:20:27;252.50;;;240.40;;
11269;SDS011;5692;48.956;9.200;2022-09-01T15:23:20;235.90;;;224.60;;
11269;SDS011;5692;48.956;9.200;2022-09-01T15:25:47;234.73;;;223.50;;
11269;SDS011;5692;48.956;9.200;2022-09-01T15:28:13;232.03;;;220.93;;
11269;SDS011;5692;48.956;9.200;2022-09-01T15:30:39;248.27;;;236.37;;
11269;SDS011;5692;48.956;9.200;2022-09-01T15:33:06;239.00;;;227.60;;
11269;SDS011;5692;48.956;9.200;2022-09-01T15:35:33;228.30;;;217.37;;